Time;durP1;ratioP1;P1;durP2;ratioP2;P2;SDS_P1;SDS_P2;PMS_P1;PMS_P2;Temp;Humidity;BMP_temperature;BMP_pressure;BME280_temperature;BME280_humidity;BME280_pressure;Samples;Min_cycle;Max_cycle;Signal;HPM_P1;HPM_P2
2023/04/19 00:00:19;;;;;;;17.48;12.32;;;;;;;;;;5023861;28;20026;-61
2023/04/19 00:02:44;;;;;;;19.50;12.02;;;;;;;;;;5022135;28;20025;-62
2023/04/19 00:05:12;;;;;;;20.52;12.45;;;;;;;;;;5023711;28;20420;-62
2023/04/19 00:07:37;;;;;;;18.17;12.02;;;;;;;;;;5011716;28;20038;-63
2023/04/19 00:10:03;;;;;;;18.90;12.90;;;;;;;;;;5026354;28;20407;-63
2023/04/19 00:12:28;;;;;;;18.98;12.32;;;;;;;;;;5011469;28;20469;-62
2023/04/19 00:14:54;;;;;;;18.77;11.98;;;;;;;;;;5011300;28;20037;-63
2023/04/19 00:17:20;;;;;;;18.48;11.77;;;;;;;;;;5012008;28;20395;-63
2023/04/19 00:19:45;;;;;;;19.48;12.27;;;;;;;;;;5012143;28;20083;-62
2023/04/19 00:22:11;;;;;;;17.73;12.23;;;;;;;;;;5026643;28;20030;-62
2023/04/19 00:24:36;;;;;;;20.73;11.75;;;;;;;;;;5012084;28;20033;-61
2023/04/19 00:27:02;;;;;;;17.17;11.57;;;;;;;;;;5026041;28;20040;-61
2023/04/19 00:29:28;;;;;;;19.10;12.00;;;;;;;;;;5027511;28;20087;-62
2023/04/19 00:31:53;;;;;;;16.33;11.00;;;;;;;;;;5015542;28;20476;-63
2023/04/19 00:34:18;;;;;;;18.40;12.25;;;;;;;;;;5014164;28;20030;-62
2023/04/19 00:36:44;;;;;;;19.00;11.27;;;;;;;;;;5012038;28;20451;-62
2023/04/19 00:39:09;;;;;;;19.60;11.45;;;;;;;;;;5023687;28;20532;-62
2023/04/19 00:41:34;;;;;;;18.40;11.80;;;;;;;;;;5024172;28;20038;-62
2023/04/19 00:44:00;;;;;;;17.50;10.88;;;;;;;;;;5026631;28;20030;-62
2023/04/19 00:46:26;;;;;;;19.73;12.25;;;;;;;;;;5015223;28;20464;-62
2023/04/19 00:48:52;;;;;;;17.73;11.70;;;;;;;;;;5023617;28;20033;-62
2023/04/19 00:51:18;;;;;;;16.85;11.43;;;;;;;;;;5024536;28;20052;-64
2023/04/19 00:53:44;;;;;;;18.60;11.75;;;;;;;;;;5025770;28;20074;-61
2023/04/19 00:56:10;;;;;;;20.15;11.82;;;;;;;;;;5023867;28;20084;-62
2023/04/19 00:58:37;;;;;;;17.42;11.88;;;;;;;;;;5011117;28;20042;-61
2023/04/19 01:01:03;;;;;;;19.27;11.38;;;;;;;;;;5010843;28;20109;-61
2023/04/19 01:03:29;;;;;;;16.67;11.25;;;;;;;;;;5013128;28;20113;-62
2023/04/19 01:05:55;;;;;;;16.48;10.68;;;;;;;;;;5014776;28;20029;-62
2023/04/19 01:08:20;;;;;;;19.20;11.07;;;;;;;;;;5021929;28;20061;-63
2023/04/19 01:10:46;;;;;;;17.52;11.18;;;;;;;;;;5012927;28;20057;-62
2023/04/19 01:13:11;;;;;;;18.40;11.07;;;;;;;;;;5030500;28;20033;-62
2023/04/19 01:15:37;;;;;;;18.35;10.85;;;;;;;;;;5015854;28;20179;-62
2023/04/19 01:18:02;;;;;;;16.45;10.65;;;;;;;;;;5026890;28;20407;-62
2023/04/19 01:20:28;;;;;;;18.92;10.95;;;;;;;;;;5025516;28;20033;-62
2023/04/19 01:22:53;;;;;;;15.18;10.27;;;;;;;;;;5027431;28;20022;-61
2023/04/19 01:25:19;;;;;;;16.17;10.57;;;;;;;;;;5014393;28;20057;-63
2023/04/19 01:27:44;;;;;;;16.13;10.65;;;;;;;;;;5011274;28;20042;-61
2023/04/19 01:30:10;;;;;;;15.70;10.93;;;;;;;;;;5024333;28;20037;-61
2023/04/19 01:32:36;;;;;;;17.13;10.23;;;;;;;;;;5025405;28;20475;-61
2023/04/19 01:35:01;;;;;;;14.45;10.32;;;;;;;;;;5028849;28;20075;-61
2023/04/19 01:37:26;;;;;;;16.70;10.02;;;;;;;;;;5018167;28;20503;-61
2023/04/19 01:39:52;;;;;;;14.60;10.02;;;;;;;;;;5025941;28;20464;-61
2023/04/19 01:42:17;;;;;;;16.50;10.23;;;;;;;;;;5032964;28;20033;-62
2023/04/19 01:44:42;;;;;;;15.27;10.27;;;;;;;;;;5030298;28;20028;-61
2023/04/19 01:47:08;;;;;;;16.25;10.10;;;;;;;;;;5021113;28;20391;-62
2023/04/19 01:49:34;;;;;;;18.27;10.05;;;;;;;;;;5020721;28;20030;-61
2023/04/19 01:51:59;;;;;;;15.38;10.00;;;;;;;;;;5010759;28;20029;-61
2023/04/19 01:54:25;;;;;;;13.73;9.75;;;;;;;;;;5017434;28;20034;-61
2023/04/19 01:56:51;;;;;;;16.30;9.05;;;;;;;;;;5021755;28;20065;-61
2023/04/19 01:59:16;;;;;;;14.90;10.05;;;;;;;;;;5013120;28;20105;-61
2023/04/19 02:01:42;;;;;;;14.50;9.40;;;;;;;;;;5014496;28;20871;-61
2023/04/19 02:04:08;;;;;;;15.13;9.82;;;;;;;;;;5015543;28;20479;-61
2023/04/19 02:06:33;;;;;;;15.48;9.95;;;;;;;;;;5022713;28;20033;-62
2023/04/19 02:08:59;;;;;;;14.55;9.30;;;;;;;;;;5018333;28;20120;-61
2023/04/19 02:11:24;;;;;;;14.73;9.40;;;;;;;;;;5021877;28;20043;-61
2023/04/19 02:13:50;;;;;;;14.70;8.55;;;;;;;;;;5014060;28;20444;-61
2023/04/19 02:16:15;;;;;;;12.95;8.63;;;;;;;;;;5016291;28;20041;-61
2023/04/19 02:18:41;;;;;;;12.85;8.60;;;;;;;;;;5015584;28;20026;-61
2023/04/19 02:21:08;;;;;;;12.77;8.98;;;;;;;;;;5016696;28;20033;-61
2023/04/19 02:23:34;;;;;;;13.40;8.80;;;;;;;;;;5011614;28;20052;-61
2023/04/19 02:26:02;;;;;;;13.30;9.30;;;;;;;;;;5010003;28;20465;-61
2023/04/19 02:28:30;;;;;;;16.52;8.93;;;;;;;;;;5010156;28;20038;-62
2023/04/19 02:30:56;;;;;;;12.77;8.77;;;;;;;;;;5021889;28;20049;-61
2023/04/19 02:33:22;;;;;;;14.02;8.63;;;;;;;;;;5013400;28;20034;-63
2023/04/19 02:35:48;;;;;;;15.98;8.40;;;;;;;;;;5014942;28;20112;-62
2023/04/19 02:38:13;;;;;;;13.52;8.40;;;;;;;;;;5029918;28;20454;-61
2023/04/19 02:40:39;;;;;;;10.68;7.60;;;;;;;;;;5018702;28;20025;-61
2023/04/19 02:43:04;;;;;;;11.85;7.97;;;;;;;;;;5029030;28;20434;-62
2023/04/19 02:45:30;;;;;;;11.10;7.15;;;;;;;;;;5013854;28;20040;-62
2023/04/19 02:47:55;;;;;;;10.90;7.28;;;;;;;;;;5027814;28;20117;-62
2023/04/19 02:50:21;;;;;;;11.20;7.10;;;;;;;;;;5021113;28;21573;-61
2023/04/19 02:52:46;;;;;;;9.82;6.50;;;;;;;;;;5028088;28;20041;-61
2023/04/19 02:55:12;;;;;;;10.90;6.45;;;;;;;;;;5019910;28;20084;-61
2023/04/19 02:57:37;;;;;;;10.43;5.85;;;;;;;;;;5024726;28;20029;-61
2023/04/19 03:00:04;;;;;;;10.20;6.18;;;;;;;;;;5017799;28;20034;-61
2023/04/19 03:02:30;;;;;;;10.05;5.85;;;;;;;;;;5015478;28;20038;-62
2023/04/19 03:04:55;;;;;;;9.68;5.75;;;;;;;;;;5016061;28;20458;-62
2023/04/19 03:07:20;;;;;;;10.40;5.68;;;;;;;;;;5013774;28;20034;-62
2023/04/19 03:09:46;;;;;;;10.10;6.10;;;;;;;;;;5028292;28;20021;-62
2023/04/19 03:12:11;;;;;;;8.93;5.70;;;;;;;;;;5013876;28;20365;-61
2023/04/19 03:14:36;;;;;;;10.27;5.78;;;;;;;;;;5015682;28;20037;-62
2023/04/19 03:17:02;;;;;;;9.57;5.72;;;;;;;;;;5014060;28;20369;-61
2023/04/19 03:19:28;;;;;;;8.20;5.40;;;;;;;;;;5015741;28;20045;-62
2023/04/19 03:21:53;;;;;;;8.40;5.40;;;;;;;;;;5028425;28;20033;-61
2023/04/19 03:24:19;;;;;;;7.43;4.97;;;;;;;;;;5024686;28;20464;-61
2023/04/19 03:26:44;;;;;;;10.07;4.95;;;;;;;;;;5024285;28;20126;-61
2023/04/19 03:29:10;;;;;;;11.65;5.50;;;;;;;;;;5019876;28;20022;-61
2023/04/19 03:31:36;;;;;;;8.45;5.10;;;;;;;;;;5012004;28;20468;-60
2023/04/19 03:34:01;;;;;;;8.35;5.00;;;;;;;;;;5031271;28;20045;-62
2023/04/19 03:36:26;;;;;;;6.97;4.82;;;;;;;;;;5012686;28;20052;-62
2023/04/19 03:38:53;;;;;;;8.00;5.05;;;;;;;;;;5021824;28;20052;-62
2023/04/19 03:41:24;;;;;;;8.13;5.10;;;;;;;;;;5013149;28;20042;-62
2023/04/19 03:43:49;;;;;;;9.75;5.38;;;;;;;;;;5029353;28;20490;-63
2023/04/19 03:46:15;;;;;;;9.93;5.70;;;;;;;;;;5032873;28;20037;-62
2023/04/19 03:48:40;;;;;;;10.27;6.00;;;;;;;;;;5018159;28;20026;-63
2023/04/19 03:51:05;;;;;;;9.23;5.65;;;;;;;;;;5019637;28;20034;-62
2023/04/19 03:53:31;;;;;;;9.68;6.13;;;;;;;;;;5028127;28;20030;-62
2023/04/19 03:55:56;;;;;;;9.15;5.90;;;;;;;;;;5029856;28;20133;-62
2023/04/19 03:58:22;;;;;;;8.02;5.50;;;;;;;;;;5026075;28;20108;-62
2023/04/19 04:00:47;;;;;;;9.20;5.60;;;;;;;;;;5017607;28;20033;-61
2023/04/19 04:03:13;;;;;;;8.45;5.60;;;;;;;;;;5016613;28;20068;-61
2023/04/19 04:05:38;;;;;;;10.80;5.95;;;;;;;;;;5014794;28;20041;-61
2023/04/19 04:08:04;;;;;;;10.75;6.10;;;;;;;;;;5012774;28;20029;-61
2023/04/19 04:10:29;;;;;;;8.98;5.50;;;;;;;;;;5022643;28;20030;-62
2023/04/19 04:12:55;;;;;;;8.95;5.60;;;;;;;;;;5012576;28;20026;-62
2023/04/19 04:15:20;;;;;;;9.68;5.78;;;;;;;;;;5027483;28;20033;-61
2023/04/19 04:17:45;;;;;;;8.82;5.63;;;;;;;;;;5030574;28;20033;-61
2023/04/19 04:20:12;;;;;;;9.27;5.50;;;;;;;;;;5026043;28;20499;-60
2023/04/19 04:22:42;;;;;;;9.05;6.00;;;;;;;;;;5011559;28;20125;-61
2023/04/19 04:25:08;;;;;;;10.13;6.07;;;;;;;;;;5011932;28;20100;-61
2023/04/19 04:27:34;;;;;;;9.05;6.13;;;;;;;;;;5011195;28;20033;-62
2023/04/19 04:30:00;;;;;;;10.75;6.68;;;;;;;;;;5011052;28;20030;-62
2023/04/19 04:32:26;;;;;;;11.23;6.45;;;;;;;;;;5027563;28;20042;-62
2023/04/19 04:34:51;;;;;;;10.95;6.43;;;;;;;;;;5020689;28;20511;-62
2023/04/19 04:37:17;;;;;;;9.77;6.50;;;;;;;;;;5014146;28;20056;-62
2023/04/19 04:39:42;;;;;;;10.30;6.28;;;;;;;;;;5020504;28;20037;-62
2023/04/19 04:42:08;;;;;;;10.00;6.70;;;;;;;;;;5022480;28;20365;-62
2023/04/19 04:44:35;;;;;;;9.70;6.20;;;;;;;;;;5021530;28;20034;-61
2023/04/19 04:47:00;;;;;;;11.20;6.05;;;;;;;;;;5021275;28;20490;-61
2023/04/19 04:49:26;;;;;;;10.98;6.10;;;;;;;;;;5026240;28;20041;-61
2023/04/19 04:51:51;;;;;;;10.15;6.53;;;;;;;;;;5012370;28;20034;-61
2023/04/19 04:54:16;;;;;;;11.07;6.43;;;;;;;;;;5024901;28;20029;-61
2023/04/19 04:56:42;;;;;;;10.43;6.40;;;;;;;;;;5030887;28;20080;-61
2023/04/19 04:59:07;;;;;;;13.05;6.38;;;;;;;;;;5031440;28;20029;-62
2023/04/19 05:01:33;;;;;;;9.32;5.90;;;;;;;;;;5027611;28;20033;-62
2023/04/19 05:03:59;;;;;;;11.07;6.15;;;;;;;;;;5031759;28;20556;-61
2023/04/19 05:06:25;;;;;;;9.68;6.38;;;;;;;;;;5029749;28;20377;-61
2023/04/19 05:08:50;;;;;;;11.32;6.28;;;;;;;;;;5031038;28;20039;-61
2023/04/19 05:11:16;;;;;;;11.60;5.82;;;;;;;;;;5030490;28;20056;-61
2023/04/19 05:13:41;;;;;;;11.85;5.97;;;;;;;;;;5029696;28;20025;-62
2023/04/19 05:16:07;;;;;;;10.82;5.72;;;;;;;;;;5030651;28;20129;-61
2023/04/19 05:18:32;;;;;;;11.07;6.15;;;;;;;;;;5030769;28;20086;-62
2023/04/19 05:20:58;;;;;;;10.35;5.65;;;;;;;;;;5030268;28;20475;-64
2023/04/19 05:23:23;;;;;;;8.85;5.25;;;;;;;;;;5030409;28;20061;-64
2023/04/19 05:25:49;;;;;;;8.30;4.97;;;;;;;;;;5027682;28;20037;-61
2023/04/19 05:28:14;;;;;;;11.13;5.25;;;;;;;;;;5030993;28;21746;-61
2023/04/19 05:30:40;;;;;;;9.35;5.65;;;;;;;;;;5029051;28;20037;-66
2023/04/19 05:33:05;;;;;;;8.93;5.18;;;;;;;;;;5031290;28;20100;-66
2023/04/19 05:35:30;;;;;;;9.57;5.28;;;;;;;;;;5028780;28;20035;-65
2023/04/19 05:37:56;;;;;;;10.32;4.93;;;;;;;;;;5029183;28;20053;-65
2023/04/19 05:40:23;;;;;;;7.97;5.15;;;;;;;;;;5031022;28;20369;-66
2023/04/19 05:42:48;;;;;;;7.20;4.68;;;;;;;;;;5029835;28;20029;-65
2023/04/19 05:45:15;;;;;;;10.95;4.90;;;;;;;;;;5030288;28;20040;-66
2023/04/19 05:47:40;;;;;;;9.18;4.82;;;;;;;;;;5028721;28;20101;-67
2023/04/19 05:50:06;;;;;;;8.77;4.97;;;;;;;;;;5020546;28;20055;-66
2023/04/19 05:52:32;;;;;;;8.27;4.40;;;;;;;;;;5026569;28;20029;-64
2023/04/19 05:54:58;;;;;;;10.32;5.32;;;;;;;;;;5010768;28;20037;-65
2023/04/19 05:57:24;;;;;;;9.63;4.45;;;;;;;;;;5028776;28;20480;-65
2023/04/19 05:59:50;;;;;;;13.25;4.88;;;;;;;;;;5027788;28;20128;-67
2023/04/19 06:02:15;;;;;;;8.48;4.25;;;;;;;;;;5030663;28;20116;-67
2023/04/19 06:04:41;;;;;;;10.70;4.22;;;;;;;;;;5029527;28;20041;-67
2023/04/19 06:07:06;;;;;;;8.27;4.32;;;;;;;;;;5031948;28;20040;-65
2023/04/19 06:09:32;;;;;;;8.75;4.60;;;;;;;;;;5029265;28;20492;-65
2023/04/19 06:11:57;;;;;;;7.38;4.07;;;;;;;;;;5021612;28;20109;-65
2023/04/19 06:14:26;;;;;;;6.22;3.85;;;;;;;;;;5031748;28;20037;-66
2023/04/19 06:16:51;;;;;;;6.88;4.07;;;;;;;;;;5034126;28;20096;-66
2023/04/19 06:19:17;;;;;;;7.18;4.30;;;;;;;;;;5034055;28;20116;-66
2023/04/19 06:21:43;;;;;;;8.43;4.38;;;;;;;;;;5033966;28;20037;-65
2023/04/19 06:24:08;;;;;;;7.20;4.10;;;;;;;;;;5033474;28;20360;-65
2023/04/19 06:26:33;;;;;;;7.32;4.15;;;;;;;;;;5031861;28;20040;-68
2023/04/19 06:29:00;;;;;;;9.90;3.95;;;;;;;;;;5034181;28;20031;-66
2023/04/19 06:31:25;;;;;;;10.05;3.88;;;;;;;;;;5032348;28;20037;-66
2023/04/19 06:33:51;;;;;;;10.50;3.97;;;;;;;;;;5034241;28;20103;-64
2023/04/19 06:36:16;;;;;;;8.10;3.83;;;;;;;;;;5032473;28;20077;-64
2023/04/19 06:38:43;;;;;;;10.20;4.18;;;;;;;;;;5032208;28;20037;-65
2023/04/19 06:41:09;;;;;;;11.35;4.30;;;;;;;;;;5030268;28;20037;-70
2023/04/19 06:43:35;;;;;;;7.78;3.80;;;;;;;;;;5034055;28;20030;-71
2023/04/19 06:46:03;;;;;;;8.48;3.65;;;;;;;;;;5031102;28;20030;-66
2023/04/19 06:48:29;;;;;;;8.48;4.15;;;;;;;;;;5034265;28;20025;-66
2023/04/19 06:50:55;;;;;;;14.18;4.15;;;;;;;;;;5029567;28;20029;-66
2023/04/19 06:53:21;;;;;;;8.68;3.60;;;;;;;;;;5020094;28;20036;-65
2023/04/19 06:55:47;;;;;;;6.78;3.92;;;;;;;;;;5025436;28;20037;-65
2023/04/19 06:58:12;;;;;;;9.88;3.90;;;;;;;;;;5033911;28;20079;-66
2023/04/19 07:00:38;;;;;;;6.13;3.47;;;;;;;;;;5027317;28;20116;-66
2023/04/19 07:03:03;;;;;;;6.20;3.55;;;;;;;;;;5032996;28;20060;-65
2023/04/19 07:05:29;;;;;;;6.63;3.67;;;;;;;;;;5033006;28;20056;-65
2023/04/19 07:07:55;;;;;;;6.28;3.42;;;;;;;;;;5032989;28;20629;-66
2023/04/19 07:10:20;;;;;;;6.60;3.50;;;;;;;;;;5030951;28;20029;-65
2023/04/19 07:12:46;;;;;;;8.30;3.70;;;;;;;;;;5031981;28;20029;-64
2023/04/19 07:15:11;;;;;;;7.50;3.20;;;;;;;;;;5032693;28;20030;-65
2023/04/19 07:17:37;;;;;;;6.53;3.50;;;;;;;;;;5033480;28;20414;-65
2023/04/19 07:20:05;;;;;;;8.38;3.75;;;;;;;;;;5023115;28;20037;-65
2023/04/19 07:22:31;;;;;;;6.05;3.50;;;;;;;;;;5031907;28;20029;-67
2023/04/19 07:24:57;;;;;;;6.25;3.20;;;;;;;;;;5033022;28;20068;-66
2023/04/19 07:27:22;;;;;;;7.72;3.30;;;;;;;;;;5032134;28;20033;-66
2023/04/19 07:29:48;;;;;;;5.38;3.13;;;;;;;;;;5031545;28;20056;-64
2023/04/19 07:32:14;;;;;;;6.55;3.45;;;;;;;;;;5031316;28;20044;-66
2023/04/19 07:34:40;;;;;;;6.18;3.50;;;;;;;;;;5031361;28;20447;-65
2023/04/19 07:37:06;;;;;;;11.93;3.35;;;;;;;;;;5033274;28;20054;-65
2023/04/19 07:39:31;;;;;;;7.07;3.70;;;;;;;;;;5026943;28;20439;-64
2023/04/19 07:41:57;;;;;;;8.60;3.60;;;;;;;;;;5029709;28;20040;-65
2023/04/19 07:44:22;;;;;;;6.80;3.35;;;;;;;;;;5030625;28;20083;-64
2023/04/19 07:46:48;;;;;;;6.55;3.50;;;;;;;;;;5031898;28;20037;-63
2023/04/19 07:49:13;;;;;;;6.38;3.50;;;;;;;;;;5031625;28;20432;-65
2023/04/19 07:51:38;;;;;;;4.68;3.10;;;;;;;;;;5031364;28;20036;-64
2023/04/19 07:54:04;;;;;;;5.72;3.13;;;;;;;;;;5012813;28;20030;-65
2023/04/19 07:56:29;;;;;;;8.45;3.13;;;;;;;;;;5023377;28;20041;-66
2023/04/19 07:58:55;;;;;;;5.57;3.05;;;;;;;;;;5031332;28;20112;-66
2023/04/19 08:01:20;;;;;;;5.63;3.38;;;;;;;;;;5032189;28;20107;-65
2023/04/19 08:03:46;;;;;;;4.72;3.17;;;;;;;;;;5031793;28;20029;-65
2023/04/19 08:06:11;;;;;;;5.35;3.00;;;;;;;;;;5030230;28;20464;-66
2023/04/19 08:08:37;;;;;;;5.43;2.88;;;;;;;;;;5031601;28;20025;-65
2023/04/19 08:11:03;;;;;;;5.93;2.92;;;;;;;;;;5031350;28;20033;-64
2023/04/19 08:13:29;;;;;;;5.35;2.70;;;;;;;;;;5032491;28;20518;-65
2023/04/19 08:15:55;;;;;;;6.03;2.97;;;;;;;;;;5030777;28;20045;-64
2023/04/19 08:18:20;;;;;;;6.05;3.00;;;;;;;;;;5031398;28;20037;-65
2023/04/19 08:20:46;;;;;;;5.53;2.95;;;;;;;;;;5030924;28;20428;-65
2023/04/19 08:23:12;;;;;;;5.45;2.67;;;;;;;;;;5030824;28;20029;-64
2023/04/19 08:25:37;;;;;;;5.50;3.10;;;;;;;;;;5023707;28;20121;-68
2023/04/19 08:28:03;;;;;;;4.95;2.70;;;;;;;;;;5040144;28;20538;-63
2023/04/19 08:30:29;;;;;;;5.32;2.78;;;;;;;;;;5031397;28;20068;-64
2023/04/19 08:32:55;;;;;;;3.92;2.50;;;;;;;;;;5026237;28;20038;-64
2023/04/19 08:35:21;;;;;;;4.95;2.60;;;;;;;;;;5026418;28;20025;-62
2023/04/19 08:37:47;;;;;;;4.28;2.70;;;;;;;;;;5031220;28;20111;-65
2023/04/19 08:40:13;;;;;;;5.03;2.67;;;;;;;;;;5031576;28;20087;-65
2023/04/19 08:42:39;;;;;;;6.38;2.60;;;;;;;;;;5029686;28;20434;-67
2023/04/19 08:45:06;;;;;;;4.25;2.35;;;;;;;;;;5028171;28;20034;-66
2023/04/19 08:47:33;;;;;;;4.90;2.50;;;;;;;;;;5030734;28;20139;-68
2023/04/19 08:50:00;;;;;;;5.40;2.53;;;;;;;;;;5028945;28;20053;-66
2023/04/19 08:52:27;;;;;;;4.53;2.42;;;;;;;;;;5022850;28;20393;-65
2023/04/19 08:54:54;;;;;;;4.93;2.58;;;;;;;;;;5021775;28;20102;-67
2023/04/19 08:57:20;;;;;;;4.50;2.80;;;;;;;;;;5030840;28;20091;-67
2023/04/19 08:59:49;;;;;;;6.60;2.85;;;;;;;;;;5030272;28;20042;-64
2023/04/19 09:02:15;;;;;;;5.78;2.78;;;;;;;;;;5030644;28;20068;-64
2023/04/19 09:04:40;;;;;;;7.55;2.90;;;;;;;;;;5028794;28;20076;-63
2023/04/19 09:07:07;;;;;;;6.07;3.00;;;;;;;;;;5027770;28;20040;-64
2023/04/19 09:09:32;;;;;;;6.25;3.25;;;;;;;;;;5031742;28;20029;-63
2023/04/19 09:11:58;;;;;;;6.05;2.70;;;;;;;;;;5029624;28;20028;-66
2023/04/19 09:14:25;;;;;;;5.07;2.70;;;;;;;;;;5023827;28;20400;-67
2023/04/19 09:16:51;;;;;;;4.03;2.55;;;;;;;;;;5028929;28;20053;-67
2023/04/19 09:19:16;;;;;;;7.05;2.85;;;;;;;;;;5031704;28;20036;-66
2023/04/19 09:21:42;;;;;;;4.60;2.70;;;;;;;;;;5024812;28;20033;-67
2023/04/19 09:24:08;;;;;;;5.93;2.65;;;;;;;;;;5028170;28;20033;-67
2023/04/19 09:26:34;;;;;;;5.50;3.13;;;;;;;;;;5030105;28;20383;-68
2023/04/19 09:29:03;;;;;;;7.35;2.88;;;;;;;;;;5029446;28;20867;-65
2023/04/19 09:31:30;;;;;;;5.95;2.80;;;;;;;;;;5029781;28;20468;-67
2023/04/19 09:33:55;;;;;;;5.63;2.97;;;;;;;;;;5028433;28;20037;-65
2023/04/19 09:36:28;;;;;;;5.47;3.00;;;;;;;;;;5031076;28;20045;-67
2023/04/19 09:38:53;;;;;;;5.32;3.15;;;;;;;;;;5030716;28;20388;-66
2023/04/19 09:41:19;;;;;;;5.40;3.05;;;;;;;;;;5025658;28;20104;-66
2023/04/19 09:43:45;;;;;;;7.07;2.88;;;;;;;;;;5030481;28;20056;-67
2023/04/19 09:46:32;;;;;;;7.65;2.90;;;;;;;;;;5033090;28;20057;-67
2023/04/19 09:49:29;;;;;;;6.07;3.15;;;;;;;;;;5034488;28;20112;-66
2023/04/19 09:51:56;;;;;;;5.65;2.85;;;;;;;;;;4988950;28;20052;-67
2023/04/19 09:54:29;;;;;;;5.32;2.90;;;;;;;;;;5035504;28;20029;-66
2023/04/19 09:56:54;;;;;;;5.55;2.95;;;;;;;;;;5034984;28;20056;-67
2023/04/19 09:59:20;;;;;;;4.50;2.83;;;;;;;;;;5035329;28;20433;-67
2023/04/19 10:01:53;;;;;;;5.60;2.90;;;;;;;;;;5035736;28;20421;-66
2023/04/19 10:04:23;;;;;;;5.95;2.95;;;;;;;;;;5030292;28;20448;-66
2023/04/19 10:06:50;;;;;;;4.95;2.85;;;;;;;;;;5033549;28;20040;-66
2023/04/19 10:09:22;;;;;;;4.70;2.90;;;;;;;;;;5033572;28;20034;-66
2023/04/19 10:12:00;;;;;;;4.32;2.88;;;;;;;;;;5035148;28;20029;-65
2023/04/19 10:14:28;;;;;;;5.05;2.95;;;;;;;;;;5028066;28;20029;-65
2023/04/19 10:16:55;;;;;;;4.22;2.70;;;;;;;;;;5013010;28;20026;-65
2023/04/19 10:19:22;;;;;;;4.10;2.95;;;;;;;;;;5045088;28;20035;-65
2023/04/19 10:21:50;;;;;;;5.60;2.70;;;;;;;;;;5034452;28;20102;-65
2023/04/19 10:24:20;;;;;;;4.20;2.70;;;;;;;;;;5033857;28;20472;-65
2023/04/19 10:27:04;;;;;;;6.72;3.13;;;;;;;;;;5033902;28;20037;-65
2023/04/19 10:29:54;;;;;;;5.18;2.70;;;;;;;;;;5030795;28;20079;-67
2023/04/19 10:32:20;;;;;;;4.70;3.13;;;;;;;;;;5033144;28;20034;-71
2023/04/19 10:34:46;;;;;;;4.68;2.88;;;;;;;;;;5031815;28;20083;-64
2023/04/19 10:37:14;;;;;;;5.75;3.17;;;;;;;;;;5032736;28;20053;-67
2023/04/19 10:39:42;;;;;;;4.53;2.95;;;;;;;;;;5016841;28;20204;-67
2023/04/19 10:42:07;;;;;;;8.75;2.80;;;;;;;;;;5024519;28;20116;-67
2023/04/19 10:44:33;;;;;;;4.90;2.88;;;;;;;;;;5034568;28;20116;-68
2023/04/19 10:46:58;;;;;;;8.40;2.90;;;;;;;;;;5032379;28;20030;-67
2023/04/19 10:49:26;;;;;;;5.88;3.20;;;;;;;;;;5033912;28;20503;-67
2023/04/19 10:51:53;;;;;;;6.45;3.20;;;;;;;;;;5029983;28;20464;-67
2023/04/19 10:54:37;;;;;;;6.38;3.17;;;;;;;;;;5033165;28;20026;-68
2023/04/19 10:57:10;;;;;;;7.35;3.17;;;;;;;;;;5030666;28;20120;-68
2023/04/19 10:59:36;;;;;;;6.88;3.05;;;;;;;;;;5013117;28;20037;-69
2023/04/19 11:02:04;;;;;;;6.18;3.20;;;;;;;;;;5026388;28;20029;-69
2023/04/19 11:04:29;;;;;;;6.40;3.17;;;;;;;;;;5033828;28;20080;-67
2023/04/19 11:06:55;;;;;;;6.18;3.28;;;;;;;;;;5028765;28;20026;-69
2023/04/19 11:09:38;;;;;;;5.13;3.10;;;;;;;;;;5033415;28;20036;-68
2023/04/19 11:12:10;;;;;;;4.53;3.10;;;;;;;;;;5032056;28;20043;-70
2023/04/19 11:14:39;;;;;;;5.30;3.20;;;;;;;;;;5030008;28;20083;-67
2023/04/19 11:17:26;;;;;;;6.63;3.30;;;;;;;;;;5032913;28;20192;-66
2023/04/19 11:20:10;;;;;;;6.90;3.60;;;;;;;;;;5032195;28;20079;-65
2023/04/19 11:22:40;;;;;;;7.97;3.40;;;;;;;;;;5033674;28;20034;-66
2023/04/19 11:25:12;;;;;;;7.85;3.78;;;;;;;;;;5028720;28;20155;-68
2023/04/19 11:27:39;;;;;;;6.65;3.42;;;;;;;;;;5033501;28;20037;-67
2023/04/19 11:30:20;;;;;;;5.93;3.60;;;;;;;;;;5031252;28;20361;-69
2023/04/19 11:32:50;;;;;;;5.63;3.50;;;;;;;;;;5033319;28;20025;-66
2023/04/19 11:35:20;;;;;;;5.72;3.33;;;;;;;;;;5017415;28;20036;-67
2023/04/19 11:37:45;;;;;;;7.05;3.67;;;;;;;;;;5033112;28;20404;-67
2023/04/19 11:40:16;;;;;;;6.85;3.85;;;;;;;;;;5031449;28;20063;-67
2023/04/19 11:42:41;;;;;;;6.32;3.63;;;;;;;;;;5033211;28;20387;-69
2023/04/19 11:45:09;;;;;;;6.68;3.60;;;;;;;;;;5030606;28;20484;-68
2023/04/19 11:47:34;;;;;;;6.85;3.63;;;;;;;;;;5033161;28;20091;-67
2023/04/19 11:50:38;;;;;;;5.13;3.30;;;;;;;;;;5031332;28;20468;-67
2023/04/19 11:53:15;;;;;;;13.57;3.85;;;;;;;;;;5016230;28;20032;-68
2023/04/19 11:55:45;;;;;;;8.30;3.70;;;;;;;;;;5032083;28;20490;-66
2023/04/19 11:58:27;;;;;;;4.75;3.47;;;;;;;;;;5030662;28;20045;-67
2023/04/19 12:00:53;;;;;;;6.60;3.78;;;;;;;;;;5032140;28;20044;-68
2023/04/19 12:03:22;;;;;;;5.78;3.40;;;;;;;;;;5031572;28;20034;-68
2023/04/19 12:05:56;;;;;;;8.53;3.77;;;;;;;;;;5031957;28;20029;-68
2023/04/19 12:08:32;;;;;;;6.45;3.50;;;;;;;;;;5030139;28;20037;-68
2023/04/19 12:10:58;;;;;;;7.03;3.33;;;;;;;;;;5031919;28;20041;-67
2023/04/19 12:13:24;;;;;;;7.00;3.83;;;;;;;;;;5031323;28;20029;-64
2023/04/19 12:15:50;;;;;;;7.90;3.53;;;;;;;;;;5031383;28;20033;-64
2023/04/19 12:18:15;;;;;;;5.03;3.30;;;;;;;;;;5031232;28;20022;-66
2023/04/19 12:20:46;;;;;;;5.95;3.70;;;;;;;;;;5032560;28;20037;-67
2023/04/19 12:23:15;;;;;;;11.15;4.07;;;;;;;;;;5028438;28;20145;-66
2023/04/19 12:25:41;;;;;;;5.80;3.65;;;;;;;;;;5031471;28;20479;-65
2023/04/19 12:28:07;;;;;;;5.53;3.70;;;;;;;;;;5031457;28;20083;-66
2023/04/19 12:30:35;;;;;;;6.60;3.70;;;;;;;;;;5030808;28;20472;-65
2023/04/19 12:33:01;;;;;;;7.45;3.67;;;;;;;;;;5031549;28;20120;-66
2023/04/19 12:35:27;;;;;;;6.30;3.72;;;;;;;;;;5030873;28;20041;-65
2023/04/19 12:37:54;;;;;;;5.28;3.70;;;;;;;;;;5026008;28;20037;-63
2023/04/19 12:40:20;;;;;;;5.80;3.55;;;;;;;;;;5029259;28;20030;-65
2023/04/19 12:42:46;;;;;;;5.25;3.30;;;;;;;;;;5032405;28;20036;-64
2023/04/19 12:45:12;;;;;;;5.15;3.78;;;;;;;;;;5030782;28;20590;-65
2023/04/19 12:47:38;;;;;;;5.55;3.35;;;;;;;;;;5031266;28;20037;-66
2023/04/19 12:50:04;;;;;;;5.78;3.90;;;;;;;;;;5029928;28;20141;-65
2023/04/19 12:52:30;;;;;;;6.88;3.60;;;;;;;;;;5029418;28;20490;-68
2023/04/19 12:54:55;;;;;;;5.20;3.40;;;;;;;;;;5031014;28;20121;-66
2023/04/19 12:57:21;;;;;;;10.15;3.40;;;;;;;;;;5029647;28;20037;-65
2023/04/19 12:59:46;;;;;;;6.07;3.60;;;;;;;;;;5031648;28;20033;-64
2023/04/19 13:02:12;;;;;;;6.78;3.17;;;;;;;;;;5029983;28;20025;-66
2023/04/19 13:04:37;;;;;;;5.20;3.45;;;;;;;;;;5030126;28;20044;-65
2023/04/19 13:07:02;;;;;;;5.53;3.30;;;;;;;;;;5028950;28;20369;-69
2023/04/19 13:09:28;;;;;;;5.40;3.40;;;;;;;;;;5030994;28;20040;-67
2023/04/19 13:11:54;;;;;;;5.95;3.30;;;;;;;;;;5031096;28;20094;-67
2023/04/19 13:14:19;;;;;;;8.43;3.40;;;;;;;;;;5030555;28;20037;-67
2023/04/19 13:16:44;;;;;;;5.05;3.05;;;;;;;;;;5029097;28;20037;-68
2023/04/19 13:19:10;;;;;;;5.57;3.10;;;;;;;;;;5027600;28;20116;-67
2023/04/19 13:21:35;;;;;;;4.63;3.20;;;;;;;;;;5030614;28;20514;-67
2023/04/19 13:24:01;;;;;;;6.75;3.63;;;;;;;;;;5029913;28;20064;-66
2023/04/19 13:26:26;;;;;;;5.65;3.13;;;;;;;;;;5030334;28;20033;-66
2023/04/19 13:28:51;;;;;;;7.20;3.35;;;;;;;;;;5029702;28;20479;-65
2023/04/19 13:31:17;;;;;;;4.45;3.20;;;;;;;;;;5031101;28;20060;-66
2023/04/19 13:33:42;;;;;;;5.80;3.10;;;;;;;;;;5030314;28;20036;-66
2023/04/19 13:36:08;;;;;;;4.95;3.30;;;;;;;;;;5029318;28;20045;-66
2023/04/19 13:38:33;;;;;;;8.32;3.53;;;;;;;;;;5029225;28;20033;-66
2023/04/19 13:40:59;;;;;;;8.43;3.75;;;;;;;;;;5030530;28;20036;-67
2023/04/19 13:43:25;;;;;;;5.75;3.13;;;;;;;;;;5027745;28;20033;-66
2023/04/19 13:45:50;;;;;;;4.10;2.90;;;;;;;;;;5030882;28;20029;-67
2023/04/19 13:48:16;;;;;;;6.13;2.90;;;;;;;;;;5024938;28;20029;-65
2023/04/19 13:50:41;;;;;;;5.70;3.17;;;;;;;;;;5014599;28;20554;-68
2023/04/19 13:53:07;;;;;;;6.95;3.28;;;;;;;;;;5028798;28;20172;-66
2023/04/19 13:55:33;;;;;;;8.10;2.85;;;;;;;;;;5029933;28;20083;-67
2023/04/19 13:57:58;;;;;;;6.03;3.08;;;;;;;;;;5028497;28;20038;-65
2023/04/19 14:00:24;;;;;;;6.22;3.17;;;;;;;;;;5031077;28;20053;-68
2023/04/19 14:02:49;;;;;;;5.32;3.08;;;;;;;;;;5030373;28;20499;-68
2023/04/19 14:05:15;;;;;;;5.72;3.20;;;;;;;;;;5026141;28;20616;-67
2023/04/19 14:07:40;;;;;;;6.55;3.40;;;;;;;;;;5030896;28;20029;-67
2023/04/19 14:10:07;;;;;;;6.60;3.25;;;;;;;;;;5027306;28;20491;-63
2023/04/19 14:12:34;;;;;;;6.70;3.03;;;;;;;;;;5027329;28;20480;-65
2023/04/19 14:15:00;;;;;;;6.18;3.20;;;;;;;;;;5027983;28;20041;-64
2023/04/19 14:17:26;;;;;;;6.20;2.80;;;;;;;;;;5020027;28;20132;-66
2023/04/19 14:19:53;;;;;;;7.15;3.15;;;;;;;;;;5027319;28;20108;-64
2023/04/19 14:22:20;;;;;;;4.80;2.75;;;;;;;;;;5041279;28;20037;-69
2023/04/19 14:24:45;;;;;;;6.40;3.30;;;;;;;;;;5031028;28;20037;-69
2023/04/19 14:27:11;;;;;;;6.90;3.30;;;;;;;;;;5028269;28;20388;-67
2023/04/19 14:29:37;;;;;;;5.45;2.83;;;;;;;;;;5028596;28;20040;-66
2023/04/19 14:32:03;;;;;;;4.00;2.80;;;;;;;;;;5030077;28;20034;-67